sensor_id;sensor_type;location;lat;lon;timestamp;P1;durP1;ratioP1;P2;durP2;ratioP2
8735;SDS011;4404;49.308;12.178;2023-04-25T07:10:46;1.77;;;1.67;;
8735;SDS011;4404;49.308;12.178;2023-04-25T07:13:05;1.77;;;1.67;;
8735;SDS011;4404;49.308;12.178;2023-04-25T07:15:07;1.67;;;1.57;;
8735;SDS011;4404;49.308;12.178;2023-04-25T07:17:11;1.23;;;1.23;;
8735;SDS011;4404;49.308;12.178;2023-04-25T07:19:13;1.27;;;1.20;;
8735;SDS011;4404;49.308;12.178;2023-04-25T07:21:16;2.70;;;2.60;;
8735;SDS011;4404;49.308;12.178;2023-04-25T07:23:20;1.57;;;1.47;;
8735;SDS011;4404;49.308;12.178;2023-04-25T07:25:22;1.93;;;1.83;;
8735;SDS011;4404;49.308;12.178;2023-04-25T07:27:26;1.00;;;1.00;;
8735;SDS011;4404;49.308;12.178;2023-04-25T07:29:28;1.80;;;1.70;;
8735;SDS011;4404;49.308;12.178;2023-04-25T07:31:31;0.93;;;0.93;;
8735;SDS011;4404;49.308;12.178;2023-04-25T07:33:33;1.03;;;1.03;;
8735;SDS011;4404;49.308;12.178;2023-04-25T07:35:37;0.93;;;0.93;;
8735;SDS011;4404;49.308;12.178;2023-04-25T07:37:40;1.40;;;1.30;;
8735;SDS011;4404;49.308;12.178;2023-04-25T07:39:42;1.50;;;1.40;;
8735;SDS011;4404;49.308;12.178;2023-04-25T07:41:44;2.37;;;2.27;;
8735;SDS011;4404;49.308;12.178;2023-04-25T07:43:48;1.43;;;1.33;;
8735;SDS011;4404;49.308;12.178;2023-04-25T07:45:51;1.67;;;1.57;;
8735;SDS011;4404;49.308;12.178;2023-04-25T07:47:53;1.60;;;1.50;;
8735;SDS011;4404;49.308;12.178;2023-04-25T07:49:55;1.40;;;1.30;;
8735;SDS011;4404;49.308;12.178;2023-04-25T07:52:00;1.27;;;1.17;;
8735;SDS011;4404;49.308;12.178;2023-04-25T07:54:03;1.00;;;1.00;;
8735;SDS011;4404;49.308;12.178;2023-04-25T07:56:05;0.97;;;0.97;;
8735;SDS011;4404;49.308;12.178;2023-04-25T07:58:09;1.10;;;1.10;;
8735;SDS011;4404;49.308;12.178;2023-04-25T08:00:14;1.37;;;1.30;;
8735;SDS011;4404;49.308;12.178;2023-04-25T08:02:17;1.10;;;1.10;;
8735;SDS011;4404;49.308;12.178;2023-04-25T08:04:19;1.00;;;1.00;;
8735;SDS011;4404;49.308;12.178;2023-04-25T08:06:22;1.07;;;1.07;;
8735;SDS011;4404;49.308;12.178;2023-04-25T08:08:25;0.90;;;0.90;;
8735;SDS011;4404;49.308;12.178;2023-04-25T08:10:27;0.90;;;0.90;;
8735;SDS011;4404;49.308;12.178;2023-04-25T08:12:29;0.90;;;0.90;;
8735;SDS011;4404;49.308;12.178;2023-04-25T08:14:31;0.97;;;0.97;;
8735;SDS011;4404;49.308;12.178;2023-04-25T08:16:38;1.20;;;1.20;;
8735;SDS011;4404;49.308;12.178;2023-04-25T08:18:40;1.00;;;1.00;;
8735;SDS011;4404;49.308;12.178;2023-04-25T08:20:43;1.00;;;1.00;;
8735;SDS011;4404;49.308;12.178;2023-04-25T08:22:45;1.20;;;1.20;;
8735;SDS011;4404;49.308;12.178;2023-04-25T08:24:48;1.13;;;1.13;;
8735;SDS011;4404;49.308;12.178;2023-04-25T08:26:50;1.03;;;1.03;;
8735;SDS011;4404;49.308;12.178;2023-04-25T08:28:55;1.07;;;1.07;;
8735;SDS011;4404;49.308;12.178;2023-04-25T08:30:57;1.10;;;1.10;;
8735;SDS011;4404;49.308;12.178;2023-04-25T08:33:01;0.90;;;0.90;;
8735;SDS011;4404;49.308;12.178;2023-04-25T08:35:04;0.90;;;0.90;;
8735;SDS011;4404;49.308;12.178;2023-04-25T08:37:06;1.00;;;1.00;;
8735;SDS011;4404;49.308;12.178;2023-04-25T08:39:09;1.00;;;1.00;;
8735;SDS011;4404;49.308;12.178;2023-04-25T08:41:12;0.80;;;0.80;;
8735;SDS011;4404;49.308;12.178;2023-04-25T08:43:15;1.10;;;1.10;;
8735;SDS011;4404;49.308;12.178;2023-04-25T08:45:20;0.90;;;0.90;;
8735;SDS011;4404;49.308;12.178;2023-04-25T08:47:22;0.80;;;0.80;;
8735;SDS011;4404;49.308;12.178;2023-04-25T08:49:27;0.93;;;0.93;;
8735;SDS011;4404;49.308;12.178;2023-04-25T08:51:31;0.90;;;0.90;;
8735;SDS011;4404;49.308;12.178;2023-04-25T08:53:34;0.93;;;0.93;;
8735;SDS011;4404;49.308;12.178;2023-04-25T08:55:36;0.90;;;0.90;;
8735;SDS011;4404;49.308;12.178;2023-04-25T08:57:40;1.10;;;1.10;;
8735;SDS011;4404;49.308;12.178;2023-04-25T08:59:43;1.00;;;1.00;;
8735;SDS011;4404;49.308;12.178;2023-04-25T09:01:47;1.10;;;1.10;;
8735;SDS011;4404;49.308;12.178;2023-04-25T09:03:50;1.00;;;1.00;;
8735;SDS011;4404;49.308;12.178;2023-04-25T09:05:53;0.90;;;0.90;;
8735;SDS011;4404;49.308;12.178;2023-04-25T09:07:56;0.90;;;0.90;;
8735;SDS011;4404;49.308;12.178;2023-04-25T09:09:58;0.90;;;0.90;;
8735;SDS011;4404;49.308;12.178;2023-04-25T09:12:03;0.90;;;0.90;;
8735;SDS011;4404;49.308;12.178;2023-04-25T09:14:12;0.90;;;0.90;;
8735;SDS011;4404;49.308;12.178;2023-04-25T09:16:15;1.00;;;1.00;;
8735;SDS011;4404;49.308;12.178;2023-04-25T09:18:22;0.90;;;0.90;;
8735;SDS011;4404;49.308;12.178;2023-04-25T09:20:26;0.90;;;0.90;;
8735;SDS011;4404;49.308;12.178;2023-04-25T09:22:29;0.80;;;0.80;;
8735;SDS011;4404;49.308;12.178;2023-04-25T09:24:33;1.00;;;1.00;;
8735;SDS011;4404;49.308;12.178;2023-04-25T09:26:38;1.07;;;1.07;;
8735;SDS011;4404;49.308;12.178;2023-04-25T09:28:40;1.13;;;1.13;;
8735;SDS011;4404;49.308;12.178;2023-04-25T09:30:43;1.50;;;1.40;;
8735;SDS011;4404;49.308;12.178;2023-04-25T09:32:47;1.47;;;1.37;;
8735;SDS011;4404;49.308;12.178;2023-04-25T09:34:50;1.23;;;1.23;;
8735;SDS011;4404;49.308;12.178;2023-04-25T09:36:54;1.10;;;1.10;;
8735;SDS011;4404;49.308;12.178;2023-04-25T09:38:58;1.10;;;1.10;;
8735;SDS011;4404;49.308;12.178;2023-04-25T09:41:03;0.90;;;0.90;;
8735;SDS011;4404;49.308;12.178;2023-04-25T09:43:08;1.13;;;1.13;;
8735;SDS011;4404;49.308;12.178;2023-04-25T09:45:12;1.47;;;1.37;;
8735;SDS011;4404;49.308;12.178;2023-04-25T09:47:15;1.20;;;1.20;;
8735;SDS011;4404;49.308;12.178;2023-04-25T09:49:21;0.90;;;0.90;;
8735;SDS011;4404;49.308;12.178;2023-04-25T09:51:24;0.80;;;0.80;;
8735;SDS011;4404;49.308;12.178;2023-04-25T09:53:27;0.80;;;0.80;;
8735;SDS011;4404;49.308;12.178;2023-04-25T09:55:31;0.97;;;0.97;;
8735;SDS011;4404;49.308;12.178;2023-04-25T09:57:35;0.90;;;0.90;;
8735;SDS011;4404;49.308;12.178;2023-04-25T09:59:42;1.00;;;1.00;;
8735;SDS011;4404;49.308;12.178;2023-04-25T10:01:46;1.03;;;1.03;;
8735;SDS011;4404;49.308;12.178;2023-04-25T10:03:50;1.00;;;1.00;;
8735;SDS011;4404;49.308;12.178;2023-04-25T10:05:54;1.00;;;1.00;;
8735;SDS011;4404;49.308;12.178;2023-04-25T10:07:59;0.93;;;0.93;;
8735;SDS011;4404;49.308;12.178;2023-04-25T10:10:05;0.80;;;0.80;;
8735;SDS011;4404;49.308;12.178;2023-04-25T10:12:10;1.17;;;1.17;;
8735;SDS011;4404;49.308;12.178;2023-04-25T10:14:12;0.90;;;0.90;;
8735;SDS011;4404;49.308;12.178;2023-04-25T10:18:39;0.80;;;0.80;;
8735;SDS011;4404;49.308;12.178;2023-04-25T10:20:41;1.00;;;1.00;;
8735;SDS011;4404;49.308;12.178;2023-04-25T10:22:44;0.90;;;0.90;;
8735;SDS011;4404;49.308;12.178;2023-04-25T10:24:49;0.90;;;0.90;;
8735;SDS011;4404;49.308;12.178;2023-04-25T10:26:52;0.80;;;0.80;;
8735;SDS011;4404;49.308;12.178;2023-04-25T10:28:56;0.90;;;0.90;;
8735;SDS011;4404;49.308;12.178;2023-04-25T10:31:01;0.90;;;0.90;;
8735;SDS011;4404;49.308;12.178;2023-04-25T10:33:16;1.00;;;1.00;;
8735;SDS011;4404;49.308;12.178;2023-04-25T10:35:19;0.90;;;0.90;;
8735;SDS011;4404;49.308;12.178;2023-04-25T10:37:26;0.90;;;0.90;;
8735;SDS011;4404;49.308;12.178;2023-04-25T10:39:28;0.80;;;0.80;;
8735;SDS011;4404;49.308;12.178;2023-04-25T10:41:30;0.90;;;0.90;;
8735;SDS011;4404;49.308;12.178;2023-04-25T10:43:33;0.80;;;0.80;;
8735;SDS011;4404;49.308;12.178;2023-04-25T10:45:51;0.90;;;0.90;;
8735;SDS011;4404;49.308;12.178;2023-04-25T10:47:54;0.90;;;0.90;;
8735;SDS011;4404;49.308;12.178;2023-04-25T10:49:56;0.90;;;0.90;;
8735;SDS011;4404;49.308;12.178;2023-04-25T10:52:16;0.90;;;0.90;;
8735;SDS011;4404;49.308;12.178;2023-04-25T10:54:21;1.00;;;1.00;;
8735;SDS011;4404;49.308;12.178;2023-04-25T10:56:28;0.90;;;0.90;;
8735;SDS011;4404;49.308;12.178;2023-04-25T10:58:32;0.80;;;0.80;;
8735;SDS011;4404;49.308;12.178;2023-04-25T11:00:34;0.80;;;0.80;;
8735;SDS011;4404;49.308;12.178;2023-04-25T11:02:42;0.90;;;0.90;;
8735;SDS011;4404;49.308;12.178;2023-04-25T11:04:46;0.90;;;0.90;;
8735;SDS011;4404;49.308;12.178;2023-04-25T11:06:58;0.80;;;0.80;;
8735;SDS011;4404;49.308;12.178;2023-04-25T11:09:11;0.90;;;0.90;;
8735;SDS011;4404;49.308;12.178;2023-04-25T11:11:14;0.90;;;0.90;;
8735;SDS011;4404;49.308;12.178;2023-04-25T11:13:16;0.90;;;0.90;;
8735;SDS011;4404;49.308;12.178;2023-04-25T11:15:21;0.80;;;0.80;;
8735;SDS011;4404;49.308;12.178;2023-04-25T11:17:24;0.80;;;0.80;;
8735;SDS011;4404;49.308;12.178;2023-04-25T11:19:28;0.80;;;0.80;;
8735;SDS011;4404;49.308;12.178;2023-04-25T11:21:30;0.80;;;0.80;;
8735;SDS011;4404;49.308;12.178;2023-04-25T11:23:33;0.80;;;0.80;;
8735;SDS011;4404;49.308;12.178;2023-04-25T11:25:35;0.80;;;0.80;;
8735;SDS011;4404;49.308;12.178;2023-04-25T11:27:38;0.80;;;0.80;;
8735;SDS011;4404;49.308;12.178;2023-04-25T11:29:51;0.90;;;0.90;;
8735;SDS011;4404;49.308;12.178;2023-04-25T11:31:53;0.80;;;0.80;;
8735;SDS011;4404;49.308;12.178;2023-04-25T11:33:58;0.80;;;0.80;;
8735;SDS011;4404;49.308;12.178;2023-04-25T11:36:02;0.90;;;0.90;;
8735;SDS011;4404;49.308;12.178;2023-04-25T11:38:07;0.77;;;0.77;;
8735;SDS011;4404;49.308;12.178;2023-04-25T11:40:09;0.80;;;0.80;;
8735;SDS011;4404;49.308;12.178;2023-04-25T11:42:12;0.90;;;0.90;;
8735;SDS011;4404;49.308;12.178;2023-04-25T11:44:15;0.80;;;0.80;;
8735;SDS011;4404;49.308;12.178;2023-04-25T11:46:17;0.90;;;0.90;;
8735;SDS011;4404;49.308;12.178;2023-04-25T11:48:20;0.90;;;0.90;;
8735;SDS011;4404;49.308;12.178;2023-04-25T11:50:22;0.90;;;0.90;;
8735;SDS011;4404;49.308;12.178;2023-04-25T11:52:25;0.80;;;0.80;;
8735;SDS011;4404;49.308;12.178;2023-04-25T11:54:38;0.90;;;0.90;;
8735;SDS011;4404;49.308;12.178;2023-04-25T11:56:41;0.80;;;0.80;;
8735;SDS011;4404;49.308;12.178;2023-04-25T11:58:56;0.80;;;0.80;;
8735;SDS011;4404;49.308;12.178;2023-04-25T12:00:59;0.90;;;0.90;;
8735;SDS011;4404;49.308;12.178;2023-04-25T12:03:03;0.80;;;0.80;;
8735;SDS011;4404;49.308;12.178;2023-04-25T12:05:06;0.80;;;0.80;;
8735;SDS011;4404;49.308;12.178;2023-04-25T12:07:09;0.80;;;0.80;;
8735;SDS011;4404;49.308;12.178;2023-04-25T12:09:13;0.80;;;0.80;;
8735;SDS011;4404;49.308;12.178;2023-04-25T12:11:20;0.80;;;0.80;;
8735;SDS011;4404;49.308;12.178;2023-04-25T12:13:23;0.90;;;0.90;;
8735;SDS011;4404;49.308;12.178;2023-04-25T12:15:28;0.80;;;0.80;;
8735;SDS011;4404;49.308;12.178;2023-04-25T12:17:30;0.80;;;0.80;;
8735;SDS011;4404;49.308;12.178;2023-04-25T12:19:32;0.80;;;0.80;;
8735;SDS011;4404;49.308;12.178;2023-04-25T12:21:36;0.90;;;0.90;;
8735;SDS011;4404;49.308;12.178;2023-04-25T12:23:38;0.90;;;0.90;;
8735;SDS011;4404;49.308;12.178;2023-04-25T12:25:43;0.80;;;0.80;;
8735;SDS011;4404;49.308;12.178;2023-04-25T12:27:47;0.80;;;0.80;;
8735;SDS011;4404;49.308;12.178;2023-04-25T12:29:50;0.80;;;0.80;;
8735;SDS011;4404;49.308;12.178;2023-04-25T12:31:54;0.80;;;0.80;;
8735;SDS011;4404;49.308;12.178;2023-04-25T12:33:56;0.80;;;0.80;;
8735;SDS011;4404;49.308;12.178;2023-04-25T12:35:59;0.90;;;0.90;;
8735;SDS011;4404;49.308;12.178;2023-04-25T12:38:04;0.80;;;0.80;;
8735;SDS011;4404;49.308;12.178;2023-04-25T12:40:06;0.80;;;0.80;;
8735;SDS011;4404;49.308;12.178;2023-04-25T12:42:11;0.90;;;0.90;;
8735;SDS011;4404;49.308;12.178;2023-04-25T12:44:13;0.80;;;0.80;;
8735;SDS011;4404;49.308;12.178;2023-04-25T12:46:16;0.90;;;0.90;;
8735;SDS011;4404;49.308;12.178;2023-04-25T12:48:18;0.90;;;0.90;;
8735;SDS011;4404;49.308;12.178;2023-04-25T12:50:20;0.90;;;0.90;;
8735;SDS011;4404;49.308;12.178;2023-04-25T12:52:22;0.80;;;0.80;;
8735;SDS011;4404;49.308;12.178;2023-04-25T12:54:25;0.80;;;0.80;;
8735;SDS011;4404;49.308;12.178;2023-04-25T12:56:27;0.80;;;0.80;;
8735;SDS011;4404;49.308;12.178;2023-04-25T12:58:30;1.00;;;1.00;;
8735;SDS011;4404;49.308;12.178;2023-04-25T13:00:33;0.80;;;0.80;;
8735;SDS011;4404;49.308;12.178;2023-04-25T13:02:35;0.83;;;0.83;;
8735;SDS011;4404;49.308;12.178;2023-04-25T13:04:37;0.80;;;0.80;;
8735;SDS011;4404;49.308;12.178;2023-04-25T13:06:39;0.90;;;0.90;;
8735;SDS011;4404;49.308;12.178;2023-04-25T13:08:42;0.90;;;0.90;;
8735;SDS011;4404;49.308;12.178;2023-04-25T13:10:44;0.80;;;0.80;;
8735;SDS011;4404;49.308;12.178;2023-04-25T13:12:47;0.80;;;0.80;;
8735;SDS011;4404;49.308;12.178;2023-04-25T13:14:50;0.80;;;0.80;;
8735;SDS011;4404;49.308;12.178;2023-04-25T13:16:52;0.90;;;0.90;;
8735;SDS011;4404;49.308;12.178;2023-04-25T13:18:54;0.80;;;0.80;;
8735;SDS011;4404;49.308;12.178;2023-04-25T13:20:57;0.90;;;0.90;;
8735;SDS011;4404;49.308;12.178;2023-04-25T13:23:35;0.90;;;0.90;;
8735;SDS011;4404;49.308;12.178;2023-04-25T13:26:10;0.97;;;0.97;;
8735;SDS011;4404;49.308;12.178;2023-04-25T13:44:44;0.90;;;0.90;;
8735;SDS011;4404;49.308;12.178;2023-04-25T13:46:49;0.90;;;0.90;;
8735;SDS011;4404;49.308;12.178;2023-04-25T13:48:54;0.90;;;0.90;;
8735;SDS011;4404;49.308;12.178;2023-04-25T13:51:03;1.00;;;1.00;;
8735;SDS011;4404;49.308;12.178;2023-04-25T13:53:22;0.80;;;0.80;;
8735;SDS011;4404;49.308;12.178;2023-04-25T14:02:42;1.00;;;1.00;;
8735;SDS011;4404;49.308;12.178;2023-04-25T14:05:07;0.90;;;0.90;;
8735;SDS011;4404;49.308;12.178;2023-04-25T14:07:10;0.90;;;0.90;;
8735;SDS011;4404;49.308;12.178;2023-04-25T14:09:12;0.90;;;0.90;;
8735;SDS011;4404;49.308;12.178;2023-04-25T14:11:15;0.80;;;0.80;;
8735;SDS011;4404;49.308;12.178;2023-04-25T14:13:18;0.80;;;0.80;;
8735;SDS011;4404;49.308;12.178;2023-04-25T14:15:21;1.00;;;1.00;;
8735;SDS011;4404;49.308;12.178;2023-04-25T14:17:24;0.80;;;0.80;;
8735;SDS011;4404;49.308;12.178;2023-04-25T14:19:26;0.80;;;0.80;;
8735;SDS011;4404;49.308;12.178;2023-04-25T14:21:29;0.80;;;0.80;;
8735;SDS011;4404;49.308;12.178;2023-04-25T14:23:32;0.80;;;0.80;;
8735;SDS011;4404;49.308;12.178;2023-04-25T14:25:35;0.80;;;0.80;;
8735;SDS011;4404;49.308;12.178;2023-04-25T14:27:37;0.90;;;0.90;;
8735;SDS011;4404;49.308;12.178;2023-04-25T14:29:40;0.80;;;0.80;;
8735;SDS011;4404;49.308;12.178;2023-04-25T14:31:44;0.90;;;0.90;;
8735;SDS011;4404;49.308;12.178;2023-04-25T14:33:46;0.90;;;0.90;;
8735;SDS011;4404;49.308;12.178;2023-04-25T14:35:48;0.93;;;0.93;;
8735;SDS011;4404;49.308;12.178;2023-04-25T14:37:50;0.97;;;0.97;;
8735;SDS011;4404;49.308;12.178;2023-04-25T14:39:55;0.90;;;0.90;;
8735;SDS011;4404;49.308;12.178;2023-04-25T14:42:00;0.93;;;0.93;;
8735;SDS011;4404;49.308;12.178;2023-04-25T14:44:02;0.90;;;0.90;;
8735;SDS011;4404;49.308;12.178;2023-04-25T14:46:04;0.90;;;0.90;;
8735;SDS011;4404;49.308;12.178;2023-04-25T14:48:08;0.87;;;0.87;;
8735;SDS011;4404;49.308;12.178;2023-04-25T14:50:10;0.90;;;0.90;;
8735;SDS011;4404;49.308;12.178;2023-04-25T14:52:12;0.90;;;0.90;;
8735;SDS011;4404;49.308;12.178;2023-04-25T14:54:14;0.80;;;0.80;;
8735;SDS011;4404;49.308;12.178;2023-04-25T14:56:17;1.27;;;1.23;;
8735;SDS011;4404;49.308;12.178;2023-04-25T14:58:19;1.07;;;1.07;;
8735;SDS011;4404;49.308;12.178;2023-04-25T15:00:21;0.97;;;0.97;;
8735;SDS011;4404;49.308;12.178;2023-04-25T15:02:27;0.73;;;0.73;;
8735;SDS011;4404;49.308;12.178;2023-04-25T15:04:30;0.83;;;0.83;;
8735;SDS011;4404;49.308;12.178;2023-04-25T15:06:33;0.80;;;0.80;;
8735;SDS011;4404;49.308;12.178;2023-04-25T15:08:35;0.90;;;0.90;;
8735;SDS011;4404;49.308;12.178;2023-04-25T15:10:37;0.90;;;0.90;;
8735;SDS011;4404;49.308;12.178;2023-04-25T15:12:39;0.80;;;0.80;;
8735;SDS011;4404;49.308;12.178;2023-04-25T15:14:42;0.80;;;0.80;;
8735;SDS011;4404;49.308;12.178;2023-04-25T15:16:45;0.90;;;0.90;;
8735;SDS011;4404;49.308;12.178;2023-04-25T15:18:47;1.00;;;1.00;;
8735;SDS011;4404;49.308;12.178;2023-04-25T15:20:51;1.10;;;1.10;;
8735;SDS011;4404;49.308;12.178;2023-04-25T15:22:53;1.00;;;1.00;;
8735;SDS011;4404;49.308;12.178;2023-04-25T15:24:56;0.90;;;0.90;;
8735;SDS011;4404;49.308;12.178;2023-04-25T15:26:58;0.90;;;0.90;;
8735;SDS011;4404;49.308;12.178;2023-04-25T15:29:00;1.07;;;1.07;;
8735;SDS011;4404;49.308;12.178;2023-04-25T15:31:03;0.83;;;0.83;;
8735;SDS011;4404;49.308;12.178;2023-04-25T15:33:06;0.83;;;0.83;;
8735;SDS011;4404;49.308;12.178;2023-04-25T15:35:08;0.90;;;0.90;;
8735;SDS011;4404;49.308;12.178;2023-04-25T15:37:13;0.93;;;0.93;;
8735;SDS011;4404;49.308;12.178;2023-04-25T15:39:15;1.00;;;1.00;;
8735;SDS011;4404;49.308;12.178;2023-04-25T15:41:18;1.07;;;1.07;;
8735;SDS011;4404;49.308;12.178;2023-04-25T15:43:20;0.97;;;0.97;;
8735;SDS011;4404;49.308;12.178;2023-04-25T15:45:23;1.43;;;1.33;;
8735;SDS011;4404;49.308;12.178;2023-04-25T15:47:26;0.80;;;0.80;;
8735;SDS011;4404;49.308;12.178;2023-04-25T15:49:28;0.90;;;0.90;;
8735;SDS011;4404;49.308;12.178;2023-04-25T15:51:31;0.93;;;0.93;;
8735;SDS011;4404;49.308;12.178;2023-04-25T15:53:35;1.00;;;1.00;;
8735;SDS011;4404;49.308;12.178;2023-04-25T15:58:48;0.90;;;0.90;;
8735;SDS011;4404;49.308;12.178;2023-04-25T16:34:08;0.83;;;0.83;;
8735;SDS011;4404;49.308;12.178;2023-04-25T16:36:24;1.20;;;1.20;;
8735;SDS011;4404;49.308;12.178;2023-04-25T16:41:54;1.00;;;1.00;;
8735;SDS011;4404;49.308;12.178;2023-04-25T16:43:56;0.80;;;0.80;;
8735;SDS011;4404;49.308;12.178;2023-04-25T16:48:38;0.80;;;0.80;;
8735;SDS011;4404;49.308;12.178;2023-04-25T16:50:52;1.10;;;1.10;;
8735;SDS011;4404;49.308;12.178;2023-04-25T16:53:38;0.90;;;0.90;;
8735;SDS011;4404;49.308;12.178;2023-04-25T16:55:43;0.87;;;0.87;;
8735;SDS011;4404;49.308;12.178;2023-04-25T17:04:29;1.10;;;1.10;;
8735;SDS011;4404;49.308;12.178;2023-04-25T17:10:18;1.00;;;1.00;;
8735;SDS011;4404;49.308;12.178;2023-04-25T17:12:21;0.93;;;0.93;;
8735;SDS011;4404;49.308;12.178;2023-04-25T17:14:26;1.00;;;1.00;;
8735;SDS011;4404;49.308;12.178;2023-04-25T17:16:33;0.90;;;0.90;;
8735;SDS011;4404;49.308;12.178;2023-04-25T17:19:33;0.90;;;0.90;;
8735;SDS011;4404;49.308;12.178;2023-04-25T17:23:59;0.90;;;0.90;;
8735;SDS011;4404;49.308;12.178;2023-04-25T17:32:57;0.90;;;0.90;;
8735;SDS011;4404;49.308;12.178;2023-04-25T17:39:44;0.90;;;0.90;;
8735;SDS011;4404;49.308;12.178;2023-04-25T17:42:15;0.80;;;0.80;;
8735;SDS011;4404;49.308;12.178;2023-04-25T17:47:38;0.90;;;0.90;;
